createdAt,value
2018-09-04T00:00:09.118Z,19.50
2018-09-04T00:02:38.957Z,19.50
2018-09-04T00:05:08.771Z,19.60
2018-09-04T00:07:38.584Z,19.60
2018-09-04T00:10:09.084Z,19.70
2018-09-04T00:12:38.994Z,19.80
2018-09-04T00:15:08.861Z,19.70
2018-09-04T00:17:38.676Z,19.60
2018-09-04T00:20:08.507Z,19.60
2018-09-04T00:22:38.379Z,19.50
2018-09-04T00:25:08.544Z,19.40
2018-09-04T00:27:38.396Z,19.50
2018-09-04T00:30:08.551Z,19.40
2018-09-04T00:32:38.371Z,19.40
2018-09-04T00:35:08.204Z,19.40
2018-09-04T00:37:38.026Z,19.30
2018-09-04T00:40:08.471Z,19.30
2018-09-04T00:42:38.334Z,19.30
2018-09-04T00:45:08.114Z,19.30
2018-09-04T00:47:37.706Z,19.50
2018-09-04T00:50:07.706Z,19.50
2018-09-04T00:52:37.366Z,19.50
2018-09-04T00:55:06.984Z,19.60
2018-09-04T00:57:36.572Z,19.40
2018-09-04T01:00:06.799Z,19.50
2018-09-04T01:02:36.476Z,19.40
2018-09-04T01:05:06.226Z,19.40
2018-09-04T01:07:35.842Z,19.40
2018-09-04T01:10:05.532Z,19.30
2018-09-04T01:12:35.205Z,19.20
2018-09-04T01:15:05.119Z,19.10
2018-09-04T01:17:34.736Z,19.10
2018-09-04T01:20:04.460Z,19.20
2018-09-04T01:22:34.105Z,19.10
2018-09-04T01:25:03.689Z,19.10
2018-09-04T01:27:33.412Z,19.00
2018-09-04T01:30:02.964Z,19.10
2018-09-04T01:32:32.555Z,19.10
2018-09-04T01:35:02.290Z,19.10
2018-09-04T01:37:31.936Z,19.10
2018-09-04T01:40:01.502Z,19.00
2018-09-04T01:42:31.082Z,19.10
2018-09-04T01:45:00.688Z,19.20
2018-09-04T01:47:30.307Z,19.00
2018-09-04T01:49:59.916Z,19.10
2018-09-04T01:52:29.494Z,19.00
2018-09-04T01:54:59.119Z,19.10
2018-09-04T01:57:28.721Z,19.20
2018-09-04T01:59:58.352Z,19.20
2018-09-04T02:02:27.986Z,19.20
2018-09-04T02:04:57.680Z,19.10
2018-09-04T02:07:27.540Z,19.20
2018-09-04T02:09:57.182Z,19.20
2018-09-04T02:12:26.849Z,19.30
2018-09-04T02:14:56.484Z,19.30
2018-09-04T02:17:26.144Z,19.00
2018-09-04T02:19:55.755Z,18.80
2018-09-04T02:22:25.392Z,18.80
2018-09-04T02:24:55.005Z,18.70
2018-09-04T02:27:24.740Z,18.90
2018-09-04T02:29:54.333Z,19.00
2018-09-04T02:32:24.037Z,19.00
2018-09-04T02:34:53.611Z,19.10
2018-09-04T02:37:23.240Z,19.20
2018-09-04T02:39:52.828Z,19.20
2018-09-04T02:42:22.432Z,19.10
2018-09-04T02:44:52.154Z,18.90
2018-09-04T02:47:21.726Z,18.90
2018-09-04T02:49:51.294Z,19.10
2018-09-04T02:52:20.960Z,18.80
2018-09-04T02:54:50.511Z,18.90
2018-09-04T02:57:20.085Z,18.90
2018-09-04T02:59:49.655Z,19.00
2018-09-04T03:02:19.262Z,19.00
2018-09-04T03:04:48.910Z,18.80
2018-09-04T03:07:18.548Z,18.80
2018-09-04T03:09:48.171Z,18.80
2018-09-04T03:12:17.751Z,19.00
2018-09-04T03:14:47.335Z,18.90
2018-09-04T03:17:16.989Z,18.90
2018-09-04T03:19:46.677Z,18.70
2018-09-04T03:22:16.294Z,18.50
2018-09-04T03:24:45.930Z,18.50
2018-09-04T03:27:15.568Z,18.60
2018-09-04T03:29:45.287Z,18.60
2018-09-04T03:32:15.055Z,18.50
2018-09-04T03:34:44.662Z,18.50
2018-09-04T03:37:14.373Z,18.50
2018-09-04T03:39:44.111Z,18.30
2018-09-04T03:42:13.788Z,18.30
2018-09-04T03:44:43.551Z,18.20
2018-09-04T03:47:14.258Z,18.10
2018-09-04T03:49:43.914Z,18.20
2018-09-04T03:52:14.762Z,18.20
2018-09-04T03:57:13.406Z,18.40
2018-09-04T03:59:43.062Z,18.30
2018-09-04T04:02:12.711Z,18.30
2018-09-04T04:04:42.300Z,18.40
2018-09-04T04:07:11.927Z,18.40
2018-09-04T04:09:41.756Z,18.30
2018-09-04T04:12:11.417Z,18.40
2018-09-04T04:14:41.350Z,18.30
2018-09-04T04:17:11.081Z,18.30
2018-09-04T04:19:40.734Z,18.30
2018-09-04T04:22:10.318Z,18.20
2018-09-04T04:24:39.901Z,18.30
2018-09-04T04:27:09.499Z,18.50
2018-09-04T04:29:39.288Z,18.30
2018-09-04T04:32:08.886Z,17.90
2018-09-04T04:34:38.451Z,17.60
2018-09-04T04:37:07.708Z,17.60
2018-09-04T04:39:37.348Z,17.60
2018-09-04T04:42:07.101Z,17.70
2018-09-04T04:44:36.691Z,17.60
2018-09-04T04:47:06.270Z,17.60
2018-09-04T04:49:35.918Z,17.50
2018-09-04T04:52:05.586Z,17.50
2018-09-04T04:54:35.192Z,17.70
2018-09-04T04:57:04.846Z,17.90
2018-09-04T04:59:34.488Z,17.90
2018-09-04T05:02:04.104Z,17.80
2018-09-04T05:04:33.692Z,17.80
2018-09-04T05:07:03.292Z,17.70
2018-09-04T05:09:33.051Z,17.70
2018-09-04T05:12:02.671Z,17.80
2018-09-04T05:14:32.294Z,17.70
2018-09-04T05:17:02.035Z,17.80
2018-09-04T05:19:31.585Z,18.00
2018-09-04T05:22:01.206Z,18.20
2018-09-04T05:24:30.823Z,18.20
2018-09-04T05:27:00.448Z,18.40
2018-09-04T05:29:30.384Z,18.50
2018-09-04T05:32:06.941Z,18.70
2018-09-04T05:34:36.818Z,18.80
2018-09-04T05:37:07.227Z,18.90
2018-09-04T05:39:36.842Z,19.10
2018-09-04T05:42:11.480Z,19.10
2018-09-04T05:44:41.161Z,19.10
2018-09-04T05:47:10.837Z,19.20
2018-09-04T05:49:40.642Z,19.20
2018-09-04T05:52:10.354Z,19.20
2018-09-04T05:54:39.933Z,19.30
2018-09-04T05:57:09.576Z,19.30
2018-09-04T05:59:39.327Z,19.30
2018-09-04T06:02:09.006Z,19.40
2018-09-04T06:04:38.629Z,19.60
2018-09-04T06:07:08.228Z,19.60
2018-09-04T06:09:37.844Z,19.60
2018-09-04T06:12:07.552Z,19.60
2018-09-04T06:14:37.194Z,19.40
2018-09-04T06:17:06.918Z,19.30
2018-09-04T06:19:36.596Z,19.30
2018-09-04T06:22:06.406Z,19.40
2018-09-04T06:24:36.116Z,19.50
2018-09-04T06:27:05.905Z,19.60
2018-09-04T06:29:35.634Z,19.70
2018-09-04T06:32:05.311Z,19.60
2018-09-04T06:34:34.963Z,19.50
2018-09-04T06:37:04.763Z,19.70
2018-09-04T06:39:34.513Z,19.60
2018-09-04T06:42:04.273Z,19.60
2018-09-04T06:44:33.937Z,19.60
2018-09-04T06:47:03.501Z,19.70
2018-09-04T06:49:33.197Z,19.70
2018-09-04T06:52:02.835Z,19.70
2018-09-04T06:54:32.410Z,19.80
2018-09-04T06:57:02.186Z,19.80
2018-09-04T06:59:32.283Z,19.80
2018-09-04T07:02:02.092Z,19.90
2018-09-04T07:04:31.807Z,20.00
2018-09-04T07:07:01.463Z,20.10
2018-09-04T07:09:32.149Z,20.20
2018-09-04T07:12:01.822Z,20.10
2018-09-04T07:14:31.531Z,20.40
2018-09-04T07:17:01.222Z,20.40
2018-09-04T07:19:30.853Z,20.60
2018-09-04T07:22:01.903Z,20.80
2018-09-04T07:24:31.559Z,20.70
2018-09-04T07:27:01.208Z,20.60
2018-09-04T07:29:30.868Z,20.60
2018-09-04T07:32:00.655Z,20.60
2018-09-04T07:34:30.338Z,20.70
2018-09-04T07:37:00.029Z,20.70
2018-09-04T07:39:29.598Z,20.90
2018-09-04T07:41:59.324Z,21.10
2018-09-04T07:44:28.935Z,21.00
2018-09-04T07:46:58.941Z,21.00
2018-09-04T07:49:29.253Z,21.10
2018-09-04T07:51:58.838Z,21.20
2018-09-04T07:54:28.426Z,21.30
2018-09-04T07:56:58.091Z,21.40
2018-09-04T07:59:27.652Z,21.40
2018-09-04T08:01:57.260Z,21.50
2018-09-04T08:04:26.913Z,21.40
2018-09-04T08:06:56.539Z,21.40
2018-09-04T08:09:26.212Z,21.50
2018-09-04T08:11:55.844Z,21.30
2018-09-04T08:14:25.654Z,21.30
2018-09-04T08:16:55.277Z,21.40
2018-09-04T08:19:24.928Z,21.50
2018-09-04T08:21:54.648Z,21.50
2018-09-04T08:24:24.295Z,22.00
2018-09-04T08:26:53.927Z,21.80
2018-09-04T08:29:23.566Z,21.70
2018-09-04T08:31:54.176Z,22.10
2018-09-04T08:34:24.577Z,21.80
2018-09-04T08:36:54.158Z,22.00
2018-09-04T08:39:23.740Z,22.20
2018-09-04T08:41:53.264Z,22.70
2018-09-04T08:44:22.893Z,22.50
2018-09-04T08:46:52.489Z,22.70
2018-09-04T08:49:22.103Z,22.90
2018-09-04T08:51:51.689Z,22.70
2018-09-04T08:54:21.380Z,22.50
2018-09-04T08:56:51.027Z,22.40
2018-09-04T08:59:20.791Z,22.50
2018-09-04T09:01:50.469Z,22.70
2018-09-04T09:04:20.052Z,22.70
2018-09-04T09:06:49.814Z,22.30
2018-09-04T09:09:19.485Z,22.40
2018-09-04T09:11:49.125Z,23.10
2018-09-04T09:14:18.846Z,23.30
2018-09-04T09:16:48.496Z,22.90
2018-09-04T09:19:18.087Z,22.90
2018-09-04T09:21:47.664Z,22.70
2018-09-04T09:24:17.525Z,22.80
2018-09-04T09:26:47.142Z,22.90
2018-09-04T09:29:16.810Z,23.20
2018-09-04T09:31:46.444Z,22.80
2018-09-04T09:34:16.016Z,22.80
2018-09-04T09:36:45.940Z,23.20
2018-09-04T09:39:15.514Z,22.80
2018-09-04T09:41:45.142Z,22.80
2018-09-04T09:44:14.702Z,22.90
2018-09-04T09:46:44.370Z,23.60
2018-09-04T09:49:13.951Z,23.20
2018-09-04T09:51:43.526Z,23.10
2018-09-04T09:54:13.160Z,23.20
2018-09-04T09:56:42.781Z,23.30
2018-09-04T09:59:12.383Z,23.40
2018-09-04T10:01:47.170Z,23.80
2018-09-04T10:04:16.779Z,24.10
2018-09-04T10:06:46.358Z,23.80
2018-09-04T10:09:17.221Z,23.30
2018-09-04T10:11:46.948Z,23.20
2018-09-04T10:14:16.663Z,23.10
2018-09-04T10:16:46.643Z,23.30
2018-09-04T10:19:16.252Z,23.30
2018-09-04T10:21:45.904Z,23.80
2018-09-04T10:24:15.687Z,24.20
2018-09-04T10:26:45.425Z,24.20
2018-09-04T10:29:15.020Z,24.30
2018-09-04T10:31:44.695Z,24.50
2018-09-04T10:34:16.103Z,24.30
2018-09-04T10:36:46.848Z,24.10
2018-09-04T10:39:21.633Z,24.20
2018-09-04T10:41:51.953Z,24.70
2018-09-04T10:44:21.757Z,25.00
2018-09-04T10:46:51.465Z,25.50
2018-09-04T10:49:21.057Z,25.70
2018-09-04T10:51:53.786Z,25.50
2018-09-04T10:54:23.541Z,25.30
2018-09-04T10:56:53.313Z,25.40
2018-09-04T10:59:22.926Z,25.20
2018-09-04T11:01:52.542Z,25.80
2018-09-04T11:04:22.226Z,25.70
2018-09-04T11:06:51.820Z,25.70
2018-09-04T11:09:21.660Z,26.00
2018-09-04T11:11:51.570Z,25.90
2018-09-04T11:14:21.250Z,26.10
2018-09-04T11:16:50.906Z,26.00
2018-09-04T11:19:20.705Z,26.10
2018-09-04T11:21:50.500Z,26.50
2018-09-04T11:24:20.267Z,25.60
2018-09-04T11:26:50.099Z,25.20
2018-09-04T11:29:19.639Z,24.80
2018-09-04T11:31:49.632Z,25.20
2018-09-04T11:34:19.612Z,25.50
2018-09-04T11:36:49.321Z,26.00
2018-09-04T11:39:19.054Z,26.00
2018-09-04T11:41:48.903Z,26.60
2018-09-04T11:44:18.653Z,26.30
2018-09-04T11:46:48.403Z,26.00
2018-09-04T11:49:18.212Z,25.90
2018-09-04T11:51:47.922Z,25.70
2018-09-04T11:54:17.671Z,26.20
2018-09-04T11:56:47.350Z,26.80
2018-09-04T11:59:17.057Z,27.60
2018-09-04T12:01:51.776Z,27.80
2018-09-04T12:04:21.388Z,27.40
2018-09-04T12:06:51.203Z,27.80
2018-09-04T12:09:21.003Z,28.00
2018-09-04T12:11:55.191Z,27.30
2018-09-04T12:14:28.969Z,26.80
2018-09-04T12:16:58.746Z,26.20
2018-09-04T12:19:33.120Z,26.60
2018-09-04T12:22:02.839Z,27.30
2018-09-04T12:24:32.475Z,27.60
2018-09-04T12:27:02.276Z,27.90
2018-09-04T12:29:32.033Z,28.20
2018-09-04T12:32:02.005Z,27.30
2018-09-04T12:34:32.807Z,27.00
2018-09-04T12:37:02.435Z,28.20
2018-09-04T12:39:32.100Z,27.40
2018-09-04T12:42:01.808Z,27.30
2018-09-04T12:44:31.439Z,27.40
2018-09-04T12:47:01.303Z,27.10
2018-09-04T12:49:30.903Z,27.00
2018-09-04T12:52:00.565Z,27.10
2018-09-04T12:54:30.312Z,27.90
2018-09-04T12:56:59.993Z,28.90
2018-09-04T12:59:29.574Z,29.10
2018-09-04T13:01:59.362Z,29.20
2018-09-04T13:04:28.978Z,29.80
2018-09-04T13:06:58.607Z,30.10
2018-09-04T13:09:28.259Z,30.20
2018-09-04T13:11:58.917Z,29.80
2018-09-04T13:14:28.755Z,29.30
2018-09-04T13:17:02.542Z,29.20
2018-09-04T13:19:32.352Z,28.20
2018-09-04T13:22:02.147Z,28.60
2018-09-04T13:24:31.747Z,28.90
2018-09-04T13:27:02.461Z,28.70
2018-09-04T13:29:33.190Z,28.60
2018-09-04T13:32:02.958Z,29.30
2018-09-04T13:34:32.747Z,29.90
2018-09-04T13:37:02.333Z,30.30
2018-09-04T13:39:31.911Z,28.30
2018-09-04T13:42:01.451Z,28.80
2018-09-04T13:44:31.199Z,29.70
2018-09-04T13:47:00.860Z,29.10
2018-09-04T13:49:30.692Z,29.10
2018-09-04T13:52:00.228Z,29.60
2018-09-04T13:54:30.270Z,30.00
2018-09-04T13:56:59.875Z,30.30
2018-09-04T13:59:29.550Z,28.70
2018-09-04T14:01:59.170Z,29.00
2018-09-04T14:04:28.744Z,29.30
2018-09-04T14:06:58.499Z,28.60
2018-09-04T14:09:28.271Z,28.80
2018-09-04T14:11:57.813Z,29.00
2018-09-04T14:14:27.484Z,29.80
2018-09-04T14:16:57.515Z,29.80
2018-09-04T14:19:27.309Z,30.50
2018-09-04T14:21:56.949Z,30.40
2018-09-04T14:24:26.488Z,28.80
2018-09-04T14:26:56.156Z,29.00
2018-09-04T14:29:54.362Z,30.30
2018-09-04T14:31:55.561Z,29.40
2018-09-04T14:34:25.326Z,29.70
2018-09-04T14:36:55.486Z,30.60
2018-09-04T14:39:25.241Z,29.80
2018-09-04T14:41:54.872Z,30.20
2018-09-04T14:44:24.484Z,29.40
2018-09-04T14:46:54.301Z,29.00
2018-09-04T14:49:23.946Z,29.00
2018-09-04T14:51:53.528Z,28.90
2018-09-04T14:54:23.252Z,29.90
2018-09-04T14:56:52.963Z,30.40
2018-09-04T14:59:22.879Z,30.60
2018-09-04T15:01:52.581Z,30.90
2018-09-04T15:04:22.205Z,30.90
2018-09-04T15:06:51.861Z,30.40
2018-09-04T15:09:21.581Z,30.50
2018-09-04T15:11:51.193Z,29.90
2018-09-04T15:14:20.743Z,29.20
2018-09-04T15:16:50.896Z,29.30
2018-09-04T15:19:20.509Z,30.00
2018-09-04T15:21:50.180Z,30.80
2018-09-04T15:24:19.922Z,30.60
2018-09-04T15:26:49.736Z,30.10
2018-09-04T15:29:19.400Z,29.90
2018-09-04T15:31:49.146Z,30.40
2018-09-04T15:34:19.175Z,30.00
2018-09-04T15:36:49.066Z,29.90
2018-09-04T15:39:18.693Z,29.60
2018-09-04T15:41:48.351Z,30.00
2018-09-04T15:44:17.981Z,29.80
2018-09-04T15:46:47.587Z,30.00
2018-09-04T15:49:22.253Z,30.30
2018-09-04T15:51:51.813Z,30.20
2018-09-04T15:54:21.593Z,30.30
2018-09-04T15:56:51.493Z,30.40
2018-09-04T15:59:21.444Z,30.80
2018-09-04T16:01:51.115Z,29.90
2018-09-04T16:04:20.789Z,30.20
2018-09-04T16:06:50.446Z,30.10
2018-09-04T16:09:20.021Z,30.10
2018-09-04T16:11:49.696Z,30.30
2018-09-04T16:14:19.343Z,30.60
2018-09-04T16:16:48.995Z,30.20
2018-09-04T16:19:18.940Z,29.90
2018-09-04T16:21:48.502Z,30.20
2018-09-04T16:24:18.168Z,30.40
2018-09-04T16:26:47.840Z,30.60
2018-09-04T16:29:17.511Z,30.50
2018-09-04T16:31:47.148Z,30.30
2018-09-04T16:34:16.751Z,30.50
2018-09-04T16:36:46.499Z,30.20
2018-09-04T16:39:16.266Z,30.30
2018-09-04T16:41:46.110Z,30.20
2018-09-04T16:44:15.761Z,29.90
2018-09-04T16:46:45.452Z,30.00
2018-09-04T16:49:15.065Z,29.70
2018-09-04T16:51:44.677Z,29.30
2018-09-04T16:54:14.336Z,28.80
2018-09-04T16:56:43.878Z,28.00
2018-09-04T16:59:13.565Z,28.00
2018-09-04T17:01:43.327Z,27.60
2018-09-04T17:04:12.989Z,27.80
2018-09-04T17:06:42.613Z,28.20
2018-09-04T17:09:12.414Z,27.90
2018-09-04T17:11:42.186Z,27.60
2018-09-04T17:14:11.981Z,27.50
2018-09-04T17:16:41.761Z,27.30
2018-09-04T17:19:11.476Z,27.10
2018-09-04T17:21:41.274Z,27.00
2018-09-04T17:24:10.904Z,26.90
2018-09-04T17:26:40.653Z,27.20
2018-09-04T17:29:10.488Z,27.00
2018-09-04T17:31:40.280Z,26.80
2018-09-04T17:34:10.114Z,26.60
2018-09-04T17:36:39.854Z,26.50
2018-09-04T17:39:10.244Z,26.60
2018-09-04T17:41:40.396Z,26.50
2018-09-04T17:44:10.674Z,26.50
2018-09-04T17:46:40.883Z,26.40
2018-09-04T17:49:11.118Z,26.30
2018-09-04T17:51:41.301Z,26.00
2018-09-04T17:54:11.438Z,26.30
2018-09-04T17:56:41.271Z,26.40
2018-09-04T17:59:11.545Z,26.40
2018-09-04T18:01:41.707Z,25.50
2018-09-04T18:04:11.959Z,25.40
2018-09-04T18:06:42.285Z,25.20
2018-09-04T18:09:12.688Z,25.10
2018-09-04T18:11:43.169Z,25.00
2018-09-04T18:14:13.448Z,25.10
2018-09-04T18:16:43.840Z,24.90
2018-09-04T18:19:14.287Z,24.90
2018-09-04T18:21:44.670Z,24.70
2018-09-04T18:24:15.349Z,24.70
2018-09-04T18:26:45.925Z,24.70
2018-09-04T18:29:16.607Z,24.70
2018-09-04T18:31:46.976Z,24.50
2018-09-04T18:34:17.614Z,24.60
2018-09-04T18:36:48.024Z,24.40
2018-09-04T18:39:18.518Z,24.30
2018-09-04T18:41:49.019Z,24.30
2018-09-04T18:44:19.449Z,24.30
2018-09-04T18:46:49.892Z,24.20
2018-09-04T18:49:20.448Z,24.10
2018-09-04T18:51:50.864Z,24.00
2018-09-04T18:54:21.353Z,24.10
2018-09-04T18:56:51.789Z,24.00
2018-09-04T18:59:22.256Z,23.90
2018-09-04T19:01:52.762Z,23.90
2018-09-04T19:04:23.251Z,24.10
2018-09-04T19:06:53.720Z,24.10
2018-09-04T19:09:24.185Z,23.80
2018-09-04T19:11:54.652Z,23.70
2018-09-04T19:14:25.206Z,23.60
2018-09-04T19:16:56.550Z,23.90
2018-09-04T19:19:27.765Z,23.80
2018-09-04T19:21:58.201Z,23.90
2018-09-04T19:24:28.885Z,23.70
2018-09-04T19:27:00.373Z,23.50
2018-09-04T19:29:30.814Z,23.40
2018-09-04T19:32:01.409Z,23.40
2018-09-04T19:34:32.098Z,23.40
2018-09-04T19:37:02.692Z,23.20
2018-09-04T19:39:33.243Z,23.20
2018-09-04T19:42:04.180Z,23.20
2018-09-04T19:44:34.786Z,23.10
2018-09-04T19:47:05.313Z,23.10
2018-09-04T19:49:36.015Z,23.20
2018-09-04T19:52:06.595Z,23.10
2018-09-04T19:54:37.284Z,23.10
2018-09-04T19:57:07.828Z,23.10
2018-09-04T19:59:38.396Z,23.00
2018-09-04T20:02:09.112Z,22.90
2018-09-04T20:04:39.576Z,22.90
2018-09-04T20:07:10.220Z,23.00
2018-09-04T20:09:40.682Z,23.10
2018-09-04T20:12:11.207Z,23.00
2018-09-04T20:14:42.579Z,23.00
2018-09-04T20:17:13.088Z,23.10
2018-09-04T20:19:43.564Z,22.90
2018-09-04T20:22:14.022Z,22.90
2018-09-04T20:24:44.458Z,22.90
2018-09-04T20:27:14.857Z,22.80
2018-09-04T20:29:45.217Z,22.70
2018-09-04T20:32:15.615Z,22.80
2018-09-04T20:34:46.231Z,22.70
2018-09-04T20:37:16.675Z,22.70
2018-09-04T20:39:47.239Z,22.60
2018-09-04T20:42:17.605Z,22.50
2018-09-04T20:44:47.905Z,22.60
2018-09-04T20:47:18.276Z,22.70
2018-09-04T20:49:48.640Z,22.60
2018-09-04T20:52:19.019Z,22.50
2018-09-04T20:54:49.462Z,22.40
2018-09-04T20:57:27.092Z,22.40
2018-09-04T21:00:08.948Z,22.20
2018-09-04T21:02:49.414Z,22.10
2018-09-04T21:05:30.156Z,21.90
2018-09-04T21:08:25.582Z,21.70
2018-09-04T21:10:56.020Z,21.80
2018-09-04T21:13:26.372Z,21.70
2018-09-04T21:15:56.195Z,21.60
2018-09-04T21:18:25.780Z,21.60
2018-09-04T21:20:55.518Z,21.60
2018-09-04T21:23:25.240Z,21.60
2018-09-04T21:25:54.870Z,21.60
2018-09-04T21:28:24.501Z,21.80
2018-09-04T21:30:54.189Z,21.80
2018-09-04T21:33:23.832Z,21.70
2018-09-04T21:35:53.440Z,21.70
2018-09-04T21:38:23.197Z,21.60
2018-09-04T21:40:52.819Z,21.50
2018-09-04T21:43:22.459Z,21.60
2018-09-04T21:45:52.093Z,21.70
2018-09-04T21:48:21.715Z,21.80
2018-09-04T21:50:51.490Z,21.80
2018-09-04T21:53:21.163Z,21.90
2018-09-04T21:55:50.780Z,21.80
2018-09-04T21:58:20.393Z,21.80
2018-09-04T22:00:50.112Z,21.70
2018-09-04T22:03:19.742Z,21.60
2018-09-04T22:05:49.484Z,21.80
2018-09-04T22:08:19.110Z,21.90
2018-09-04T22:10:48.775Z,21.60
2018-09-04T22:13:18.571Z,21.50
2018-09-04T22:15:48.358Z,21.30
2018-09-04T22:18:18.086Z,21.40
2018-09-04T22:20:47.879Z,21.50
2018-09-04T22:23:17.577Z,21.60
2018-09-04T22:25:47.128Z,21.70
2018-09-04T22:28:16.716Z,21.60
2018-09-04T22:30:46.367Z,21.60
2018-09-04T22:33:16.035Z,21.50
2018-09-04T22:35:45.757Z,21.60
2018-09-04T22:38:15.376Z,21.80
2018-09-04T22:40:44.953Z,21.30
2018-09-04T22:43:14.534Z,21.30
2018-09-04T22:45:44.112Z,21.30
2018-09-04T22:48:13.740Z,21.50
2018-09-04T22:50:48.520Z,21.60
2018-09-04T22:53:18.284Z,21.60
2018-09-04T22:55:48.361Z,21.60
2018-09-04T22:58:18.059Z,21.30
2018-09-04T23:00:47.717Z,21.20
2018-09-04T23:03:17.403Z,21.10
2018-09-04T23:05:46.972Z,21.30
2018-09-04T23:08:16.623Z,21.40
2018-09-04T23:10:46.359Z,21.40
2018-09-04T23:13:15.966Z,21.30
2018-09-04T23:15:45.555Z,21.50
2018-09-04T23:18:15.212Z,21.20
2018-09-04T23:20:44.852Z,21.10
2018-09-04T23:23:14.437Z,21.00
2018-09-04T23:25:44.078Z,20.90
2018-09-04T23:28:13.720Z,20.90
2018-09-04T23:30:43.330Z,20.80
2018-09-04T23:33:12.989Z,20.90
2018-09-04T23:35:42.566Z,20.90
2018-09-04T23:38:12.164Z,20.80
2018-09-04T23:40:41.744Z,20.80
2018-09-04T23:43:11.366Z,20.90
2018-09-04T23:45:41.076Z,20.90
2018-09-04T23:48:10.644Z,20.90
2018-09-04T23:50:40.326Z,20.80
2018-09-04T23:53:09.995Z,20.70
2018-09-04T23:55:39.692Z,20.70
2018-09-04T23:58:09.361Z,20.70
